DFFD

Ouagadougou Airport

Ouagadougou, Burkina Faso
METAR DFFD 101500Z 04006KT CAVOK 32/M01 Q1013 NOSIG
Observed Flight Rules
Dec-10 @ 15:00 UTC (22 minutes ago) Visual Flight Rules
Wind Visibility Clouds
40° at 6 knots 10,000+ meters
  • Clear skies
Temperatures Readings
Current 32°C / 90°F
Dewpoint -1°C / 30°F
Humidity 12%
Altimeter 29.91" Hg
Pressure 1013 hPa
Elevation 306
METAR DFFD 101500Z 04006KT CAVOK 32/M01 Q1013 NOSIG
Observed Flight Rules
Dec-10 @ 15:00 UTC
(22 minutes ago)
VFR
Wind Visibility
40° at 6 knots 10,000+ meters
Clouds
  • Clear skies
Temperature Dewpoint
32°C / 90°F -1°C / 30°F
Humidity Altimeter Pressure
12% 29.91" Hg 1013 hPa